Time;durP1;ratioP1;P1;durP2;ratioP2;P2;SDS_P1;SDS_P2;PMS_P1;PMS_P2;Temp;Humidity;BMP_temperature;BMP_pressure;BME280_temperature;BME280_humidity;BME280_pressure;Samples;Min_cycle;Max_cycle;Signal;HPM_P1;HPM_P2
2023/03/10 00:02:05;;;;;;;6.25;3.67;;;;;;;-0.60;86.60;99358.91;5094211;28;20471;-65
2023/03/10 00:04:31;;;;;;;7.50;3.53;;;;;;;-0.53;86.39;99368.69;5093191;28;20506;-65
2023/03/10 00:06:56;;;;;;;6.07;3.67;;;;;;;-0.60;86.99;99365.00;5093792;28;20429;-66
2023/03/10 00:09:22;;;;;;;5.13;3.20;;;;;;;-0.58;86.47;99365.69;5090149;28;20126;-65
2023/03/10 00:11:47;;;;;;;5.45;3.47;;;;;;;-0.54;86.49;99356.44;5091586;28;20032;-66
2023/03/10 00:14:14;;;;;;;6.18;3.35;;;;;;;-0.53;86.49;99366.03;5092877;28;20127;-65
2023/03/10 00:16:40;;;;;;;4.53;3.15;;;;;;;-0.50;86.96;99356.94;5093152;28;20032;-65
2023/03/10 00:19:06;;;;;;;6.05;3.28;;;;;;;-0.52;86.98;99343.91;5093223;28;20024;-66
2023/03/10 00:21:32;;;;;;;4.22;2.65;;;;;;;-0.65;87.01;99326.88;5092111;28;20039;-65
2023/03/10 00:23:58;;;;;;;4.88;3.35;;;;;;;-0.45;87.07;99351.19;5092815;28;20020;-65
2023/03/10 00:26:26;;;;;;;5.00;3.20;;;;;;;-0.39;86.78;99353.16;5092564;28;20048;-66
2023/03/10 00:28:53;;;;;;;5.50;3.58;;;;;;;-0.37;86.77;99348.53;5092796;28;20032;-66
2023/03/10 00:31:21;;;;;;;6.03;3.28;;;;;;;-0.38;87.03;99349.53;5092620;28;20020;-65
2023/03/10 00:33:47;;;;;;;5.68;3.00;;;;;;;-0.36;87.42;99347.56;5092060;28;20432;-65
2023/03/10 00:36:18;;;;;;;5.07;2.90;;;;;;;-0.27;87.27;99346.53;5092870;28;20027;-65
2023/03/10 00:38:46;;;;;;;4.22;2.65;;;;;;;-0.30;87.95;99344.22;5092598;28;20028;-65
2023/03/10 00:41:14;;;;;;;4.25;2.72;;;;;;;-0.27;87.46;99336.78;5092761;28;20028;-65
2023/03/10 00:43:40;;;;;;;5.35;2.92;;;;;;;-0.12;87.66;99344.91;5091542;28;20583;-65
2023/03/10 00:46:06;;;;;;;4.43;3.10;;;;;;;-0.18;88.51;99342.91;5092802;28;20028;-66
2023/03/10 00:48:32;;;;;;;7.28;3.20;;;;;;;-0.11;88.27;99345.72;5092713;28;20032;-65
2023/03/10 00:50:58;;;;;;;5.13;3.22;;;;;;;-0.13;88.59;99347.69;5092659;28;20016;-65
2023/03/10 00:53:24;;;;;;;4.95;3.10;;;;;;;-0.16;88.29;99348.88;5092634;28;20065;-65
2023/03/10 00:56:05;;;;;;;6.03;3.17;;;;;;;-0.17;88.36;99347.19;5092256;28;20402;-65
2023/03/10 00:58:31;;;;;;;5.03;3.20;;;;;;;-0.18;88.28;99342.91;5092950;28;20020;-65
2023/03/10 01:00:57;;;;;;;6.28;3.38;;;;;;;-0.17;88.36;99336.63;5092200;28;20036;-65
2023/03/10 01:03:24;;;;;;;5.60;3.38;;;;;;;-0.19;88.14;99337.81;5091911;28;20028;-66
2023/03/10 01:05:51;;;;;;;4.80;3.00;;;;;;;-0.26;88.15;99335.81;5092500;28;20084;-66
2023/03/10 01:08:17;;;;;;;4.68;3.42;;;;;;;-0.25;88.35;99331.34;5092655;28;20028;-65
2023/03/10 01:10:43;;;;;;;4.97;3.20;;;;;;;-0.27;88.68;99326.22;5092640;28;20085;-65
2023/03/10 01:13:10;;;;;;;5.53;3.00;;;;;;;-0.30;88.56;99329.22;5092833;28;20110;-65
2023/03/10 01:15:36;;;;;;;5.32;3.38;;;;;;;-0.32;88.47;99322.44;5092435;28;20036;-65
2023/03/10 01:18:03;;;;;;;5.68;3.33;;;;;;;-0.38;88.59;99308.06;5092292;28;20081;-66
2023/03/10 01:20:30;;;;;;;5.53;3.20;;;;;;;-0.30;88.61;99329.22;5092320;28;20048;-66
2023/03/10 01:22:55;;;;;;;5.00;3.03;;;;;;;-0.27;88.74;99325.41;5091841;28;20040;-65
2023/03/10 01:25:21;;;;;;;8.10;3.42;;;;;;;-0.23;88.51;99324.09;5092602;28;20144;-65
2023/03/10 01:27:46;;;;;;;4.50;2.97;;;;;;;-0.27;88.39;99320.13;5092514;28;20027;-65
2023/03/10 01:30:12;;;;;;;4.80;3.42;;;;;;;-0.24;88.29;99309.22;5092729;28;20069;-66
2023/03/10 01:32:37;;;;;;;5.15;3.47;;;;;;;-0.24;88.53;99315.31;5092873;28;20029;-66
2023/03/10 01:35:04;;;;;;;7.80;3.38;;;;;;;-0.27;88.79;99313.00;5092992;28;20418;-65
2023/03/10 01:37:30;;;;;;;6.25;3.13;;;;;;;-0.26;88.50;99319.97;5091541;28;20028;-65
2023/03/10 01:39:55;;;;;;;6.38;3.20;;;;;;;-0.25;88.77;99308.38;5095783;28;20035;-65
2023/03/10 01:42:21;;;;;;;7.38;3.63;;;;;;;-0.24;88.30;99311.84;5096774;28;20038;-65
2023/03/10 01:45:07;;;;;;;8.57;4.10;;;;;;;-0.31;88.69;99298.47;5095276;28;20539;-65
2023/03/10 01:47:32;;;;;;;7.45;4.00;;;;;;;-0.36;88.65;99305.28;5096236;28;20130;-65
2023/03/10 01:49:58;;;;;;;6.65;3.85;;;;;;;-0.34;88.75;99309.38;5096256;28;20054;-66
2023/03/10 01:52:26;;;;;;;9.68;3.53;;;;;;;-0.35;88.64;99304.28;5096294;28;20054;-65
2023/03/10 01:55:05;;;;;;;5.13;3.50;;;;;;;-0.33;88.70;99303.13;5095422;28;20756;-65
2023/03/10 01:57:46;;;;;;;5.35;3.53;;;;;;;-0.30;88.78;99304.59;5096509;28;20437;-66
2023/03/10 02:00:13;;;;;;;6.32;3.45;;;;;;;-0.29;88.62;99298.31;5096484;28;20020;-65
2023/03/10 02:03:11;;;;;;;8.43;3.75;;;;;;;-0.28;88.72;99307.91;5095844;28;20048;-65
2023/03/10 02:05:47;;;;;;;7.82;3.33;;;;;;;-0.26;88.59;99311.22;5070225;28;20040;-65
2023/03/10 02:08:14;;;;;;;6.15;3.25;;;;;;;-0.11;88.20;99309.53;5096225;28;20057;-66
2023/03/10 02:10:40;;;;;;;5.45;3.60;;;;;;;-0.18;88.32;99308.53;5095757;28;20020;-66
2023/03/10 02:13:05;;;;;;;6.13;3.53;;;;;;;-0.16;88.35;99303.13;5096039;28;20422;-66
2023/03/10 02:15:32;;;;;;;7.03;3.58;;;;;;;-0.13;88.61;99308.03;5095917;28;20093;-65
2023/03/10 02:17:59;;;;;;;6.10;3.55;;;;;;;-0.10;88.60;99307.69;5095921;28;20089;-66
2023/03/10 02:20:43;;;;;;;6.18;3.38;;;;;;;-0.14;88.50;99296.63;5094365;28;20048;-65
2023/03/10 02:23:13;;;;;;;4.25;2.97;;;;;;;-0.16;88.69;99301.28;5096090;28;20110;-65
2023/03/10 02:25:43;;;;;;;4.97;3.50;;;;;;;-0.15;88.64;99292.34;5095550;28;20058;-65
2023/03/10 02:28:09;;;;;;;7.15;3.60;;;;;;;-0.20;88.49;99292.00;5095752;28;20016;-65
2023/03/10 02:30:42;;;;;;;4.18;3.10;;;;;;;-0.19;89.00;99295.50;5095129;28;20035;-65
2023/03/10 02:33:20;;;;;;;7.88;3.38;;;;;;;-0.32;88.53;99290.72;5095821;28;20390;-65
2023/03/10 02:35:45;;;;;;;6.50;3.72;;;;;;;-0.32;88.98;99291.53;5095272;28;20024;-65
2023/03/10 02:38:11;;;;;;;6.82;3.75;;;;;;;-0.34;88.97;99293.53;5095858;28;20089;-65
2023/03/10 02:40:39;;;;;;;6.63;3.70;;;;;;;-0.30;88.85;99283.44;5095617;28;20070;-65
2023/03/10 02:43:21;;;;;;;5.05;3.30;;;;;;;-0.36;88.68;99281.47;5095857;28;20032;-65
2023/03/10 02:45:49;;;;;;;6.47;3.38;;;;;;;-0.36;88.56;99289.41;5095319;28;20023;-65
2023/03/10 02:48:38;;;;;;;4.95;3.65;;;;;;;-0.39;88.58;99285.28;5095592;28;20053;-65
2023/03/10 02:51:08;;;;;;;5.15;3.55;;;;;;;-0.40;88.77;99278.31;5094265;28;20127;-65
2023/03/10 02:53:33;;;;;;;5.43;3.22;;;;;;;-0.42;88.89;99271.56;5094416;28;20483;-65
2023/03/10 02:55:59;;;;;;;4.22;3.13;;;;;;;-0.42;88.81;99269.75;5094714;28;20062;-66
2023/03/10 02:58:29;;;;;;;6.10;3.72;;;;;;;-0.42;89.02;99274.22;5093897;28;20076;-65
2023/03/10 03:00:55;;;;;;;5.90;3.85;;;;;;;-0.40;89.16;99288.06;5095417;28;20251;-65
2023/03/10 03:03:21;;;;;;;4.93;3.25;;;;;;;-0.37;89.15;99278.00;5095191;28;20031;-65
2023/03/10 03:05:47;;;;;;;6.40;3.20;;;;;;;-0.36;88.88;99276.19;5095242;28;20028;-65
2023/03/10 03:08:13;;;;;;;5.90;3.58;;;;;;;-0.34;89.01;99272.38;5113549;28;20043;-65
2023/03/10 03:10:39;;;;;;;5.22;3.10;;;;;;;-0.32;88.95;99272.22;5104204;28;20024;-65
2023/03/10 03:13:05;;;;;;;4.72;3.30;;;;;;;-0.45;89.11;99248.13;5095001;28;20043;-66
2023/03/10 03:15:31;;;;;;;4.00;2.92;;;;;;;-0.38;88.71;99272.88;5095118;28;20028;-65
2023/03/10 03:17:57;;;;;;;7.55;3.40;;;;;;;-0.38;89.00;99272.88;5093258;28;20490;-66
2023/03/10 03:20:23;;;;;;;4.25;3.15;;;;;;;-0.42;88.90;99268.94;5094856;28;20051;-65
2023/03/10 03:22:49;;;;;;;4.80;3.20;;;;;;;-0.44;89.14;99268.25;5094348;28;20024;-65
2023/03/10 03:25:18;;;;;;;4.32;2.80;;;;;;;-0.44;88.85;99270.91;5094550;28;20043;-65
2023/03/10 03:27:45;;;;;;;6.15;3.50;;;;;;;-0.46;88.98;99279.00;5094369;28;20034;-65
2023/03/10 03:30:14;;;;;;;4.95;3.15;;;;;;;-0.47;89.01;99272.88;5094713;28;20111;-65
2023/03/10 03:32:40;;;;;;;6.65;3.30;;;;;;;-0.50;89.00;99273.22;5095074;28;20035;-65
2023/03/10 03:35:11;;;;;;;5.68;3.28;;;;;;;-0.52;89.09;99275.19;5094125;28;20081;-66
2023/03/10 03:37:37;;;;;;;5.38;3.20;;;;;;;-0.55;88.67;99274.72;5093820;28;20505;-65
2023/03/10 03:40:11;;;;;;;6.10;3.10;;;;;;;-0.60;88.82;99277.81;5093300;28;20028;-65
2023/03/10 03:42:37;;;;;;;6.07;3.35;;;;;;;-0.59;88.81;99276.03;5094195;28;20071;-65
2023/03/10 03:45:03;;;;;;;4.63;3.30;;;;;;;-0.65;88.66;99274.88;5093845;28;20032;-65
2023/03/10 03:47:29;;;;;;;7.85;3.28;;;;;;;-0.74;88.58;99271.38;5094069;28;20032;-65
2023/03/10 03:49:54;;;;;;;5.68;3.38;;;;;;;-0.72;88.97;99277.34;5094760;28;20102;-65
2023/03/10 03:52:19;;;;;;;4.50;3.28;;;;;;;-0.72;88.96;99281.81;5096536;28;20024;-65
2023/03/10 03:54:45;;;;;;;4.03;2.92;;;;;;;-0.73;88.98;99288.06;5114199;28;20028;-65
2023/03/10 03:57:10;;;;;;;6.45;3.53;;;;;;;-0.75;88.69;99279.50;5095981;28;20023;-65
2023/03/10 03:59:36;;;;;;;5.07;3.08;;;;;;;-0.81;88.76;99280.13;5095790;28;20070;-65
2023/03/10 04:02:01;;;;;;;6.45;3.35;;;;;;;-0.78;88.75;99278.00;5094549;28;20032;-65
2023/03/10 04:04:26;;;;;;;3.92;2.83;;;;;;;-0.75;88.83;99292.69;5093447;28;20036;-65
2023/03/10 04:06:52;;;;;;;7.03;3.28;;;;;;;-0.71;88.90;99294.00;5093896;28;20039;-65
2023/03/10 04:09:17;;;;;;;4.13;2.95;;;;;;;-0.75;88.59;99282.13;5094023;28;20027;-65
2023/03/10 04:11:43;;;;;;;5.75;2.90;;;;;;;-0.68;88.47;99292.88;5093350;28;20494;-65
2023/03/10 04:14:08;;;;;;;4.40;3.13;;;;;;;-0.77;89.02;99292.03;5094042;28;20111;-65
2023/03/10 04:16:33;;;;;;;6.18;3.20;;;;;;;-0.86;89.06;99285.06;5093628;28;20028;-65
2023/03/10 04:19:00;;;;;;;3.53;2.70;;;;;;;-0.88;89.14;99284.44;5093533;28;20106;-66
2023/03/10 04:21:26;;;;;;;4.05;2.63;;;;;;;-1.00;88.41;99263.59;5093413;28;20043;-65
2023/03/10 04:23:51;;;;;;;6.00;3.20;;;;;;;-0.89;88.63;99282.75;5092356;28;20402;-66
2023/03/10 04:26:16;;;;;;;5.75;3.03;;;;;;;-0.91;88.85;99287.38;5092350;28;20499;-65
2023/03/10 04:28:42;;;;;;;4.78;2.90;;;;;;;-0.87;88.52;99286.06;5093374;28;20103;-65
2023/03/10 04:31:15;;;;;;;4.63;2.63;;;;;;;-0.83;88.43;99287.38;5093430;28;20020;-65
2023/03/10 04:33:41;;;;;;;6.15;3.17;;;;;;;-0.80;88.36;99287.88;5093354;28;20024;-65
2023/03/10 04:36:07;;;;;;;5.85;3.00;;;;;;;-0.73;88.54;99285.41;5093273;28;20043;-65
2023/03/10 04:38:32;;;;;;;7.47;3.03;;;;;;;-0.67;88.82;99284.75;5093454;28;20036;-65
2023/03/10 04:40:58;;;;;;;6.63;3.00;;;;;;;-0.65;88.50;99285.44;5092343;28;20024;-65
2023/03/10 04:43:24;;;;;;;5.18;3.20;;;;;;;-0.58;88.27;99291.72;5091739;28;20066;-65
2023/03/10 04:45:51;;;;;;;3.90;3.03;;;;;;;-0.56;88.22;99292.38;5093125;28;20031;-65
2023/03/10 04:48:16;;;;;;;7.03;3.33;;;;;;;-0.51;87.99;99294.53;5092658;28;20055;-65
2023/03/10 04:50:42;;;;;;;4.20;3.17;;;;;;;-0.53;88.28;99285.91;5093017;28;20123;-65
2023/03/10 04:53:07;;;;;;;6.18;3.30;;;;;;;-0.67;88.80;99276.84;5093314;28;20016;-65
2023/03/10 04:55:33;;;;;;;5.43;3.53;;;;;;;-0.57;88.83;99295.16;5092942;28;20057;-65
2023/03/10 04:57:58;;;;;;;6.07;3.58;;;;;;;-0.50;88.86;99298.81;5093113;28;20035;-65
2023/03/10 05:00:24;;;;;;;4.30;3.10;;;;;;;-0.47;88.72;99301.94;5092660;28;20471;-65
2023/03/10 05:02:49;;;;;;;4.70;2.88;;;;;;;-0.42;88.88;99301.47;5092479;28;20058;-65
2023/03/10 05:05:15;;;;;;;4.45;3.17;;;;;;;-0.39;88.96;99301.13;5091953;28;20421;-65
2023/03/10 05:07:41;;;;;;;6.13;3.20;;;;;;;-0.40;88.61;99299.47;5091834;28;20020;-65
2023/03/10 05:10:07;;;;;;;5.93;3.28;;;;;;;-0.42;88.82;99295.34;5092788;28;20035;-65
2023/03/10 05:12:33;;;;;;;6.43;3.28;;;;;;;-0.44;88.75;99290.22;5096170;28;20047;-65
2023/03/10 05:14:58;;;;;;;5.65;3.63;;;;;;;-0.51;88.86;99291.88;5101303;28;20497;-65
2023/03/10 05:17:26;;;;;;;6.13;3.30;;;;;;;-0.51;88.52;99297.16;5094600;28;20031;-65
2023/03/10 05:19:51;;;;;;;4.70;3.38;;;;;;;-0.58;88.79;99302.28;5091449;28;20044;-66
2023/03/10 05:22:17;;;;;;;9.27;3.10;;;;;;;-0.62;89.12;99306.25;5092582;28;20028;-65
2023/03/10 05:24:42;;;;;;;4.82;3.30;;;;;;;-0.73;88.99;99304.75;5091961;28;20364;-65
2023/03/10 05:27:09;;;;;;;4.90;2.67;;;;;;;-0.77;89.26;99298.13;5092697;28;20077;-65
2023/03/10 05:29:37;;;;;;;5.85;3.22;;;;;;;-0.84;89.62;99298.94;5092612;28;20069;-66
2023/03/10 05:32:03;;;;;;;4.13;2.80;;;;;;;-0.85;89.24;99298.13;5092415;28;20047;-65
2023/03/10 05:34:29;;;;;;;4.18;2.78;;;;;;;-0.93;89.81;99306.03;5091372;28;20052;-66
2023/03/10 05:36:55;;;;;;;4.75;2.67;;;;;;;-0.86;89.40;99298.28;5092051;28;20032;-65
2023/03/10 05:39:20;;;;;;;4.30;2.67;;;;;;;-0.90;89.05;99292.50;5092354;28;20458;-66
2023/03/10 05:41:46;;;;;;;4.68;2.72;;;;;;;-0.92;89.21;99305.06;5092029;28;20415;-66
2023/03/10 05:44:11;;;;;;;4.97;2.95;;;;;;;-0.90;88.90;99308.34;5092792;28;20093;-65
2023/03/10 05:46:36;;;;;;;5.22;3.00;;;;;;;-0.88;88.75;99311.66;5092567;28;20035;-65
2023/03/10 05:49:02;;;;;;;7.43;3.42;;;;;;;-0.87;88.61;99302.72;5092571;28;20085;-65
2023/03/10 05:51:27;;;;;;;5.55;3.40;;;;;;;-1.00;89.11;99302.38;5092315;28;20418;-65
2023/03/10 05:53:53;;;;;;;5.75;3.30;;;;;;;-1.08;90.24;99311.13;5092422;28;20475;-64
2023/03/10 05:56:19;;;;;;;7.78;3.53;;;;;;;-1.22;90.86;99303.81;5092456;28;20032;-64
2023/03/10 05:58:46;;;;;;;6.57;3.00;;;;;;;-1.37;90.80;99298.31;5091451;28;20036;-66
2023/03/10 06:01:11;;;;;;;4.63;3.17;;;;;;;-1.51;91.20;99312.94;5092137;28;20028;-65
2023/03/10 06:03:37;;;;;;;4.45;3.10;;;;;;;-1.52;91.19;99311.28;5091734;28;20028;-65
2023/03/10 06:06:05;;;;;;;6.90;3.17;;;;;;;-1.47;91.07;99313.44;5091611;28;20028;-66
2023/03/10 06:08:31;;;;;;;5.45;3.10;;;;;;;-1.52;90.71;99286.72;5089705;28;20443;-65
2023/03/10 06:10:57;;;;;;;7.72;3.50;;;;;;;-1.22;89.70;99317.03;5089384;28;20486;-65
2023/03/10 06:13:23;;;;;;;6.10;3.33;;;;;;;-1.17;89.40;99332.34;5090126;28;20020;-65
2023/03/10 06:15:58;;;;;;;7.45;3.28;;;;;;;-1.15;89.17;99325.94;5090859;28;20039;-65
2023/03/10 06:18:24;;;;;;;6.13;3.50;;;;;;;-1.13;88.85;99333.69;5090858;28;20432;-66
2023/03/10 06:20:52;;;;;;;4.97;3.05;;;;;;;-1.34;89.22;99326.19;5094670;28;20040;-65
2023/03/10 06:23:18;;;;;;;5.20;3.15;;;;;;;-1.62;89.89;99333.47;5102569;28;20069;-65
2023/03/10 06:25:44;;;;;;;4.45;2.88;;;;;;;-1.60;90.07;99347.34;5095272;28;20032;-65
2023/03/10 06:28:11;;;;;;;4.47;2.75;;;;;;;-1.70;91.31;99342.19;5096784;28;20044;-65
2023/03/10 06:30:36;;;;;;;6.07;2.90;;;;;;;-1.74;91.47;99341.66;5089938;28;20032;-65
2023/03/10 06:33:02;;;;;;;5.00;2.88;;;;;;;-1.61;90.89;99350.97;5095690;28;20030;-64
2023/03/10 06:35:28;;;;;;;4.78;3.05;;;;;;;-1.39;90.45;99353.06;5097215;28;20486;-65
2023/03/10 06:37:54;;;;;;;5.72;3.10;;;;;;;-1.66;90.68;99338.25;5100322;28;20127;-64
2023/03/10 06:40:20;;;;;;;5.95;3.35;;;;;;;-1.39;90.17;99360.13;5101186;28;20056;-65
2023/03/10 06:42:45;;;;;;;4.53;2.63;;;;;;;-1.44;90.03;99358.81;5100136;28;20039;-65
2023/03/10 06:45:15;;;;;;;4.20;2.58;;;;;;;-1.71;90.67;99357.19;5100117;28;20028;-65
2023/03/10 06:47:42;;;;;;;4.47;2.80;;;;;;;-2.04;91.36;99358.78;5100401;28;20506;-68
2023/03/10 06:50:09;;;;;;;5.90;3.20;;;;;;;-1.83;91.36;99355.78;5101776;28;20032;-65
2023/03/10 06:52:35;;;;;;;4.55;2.75;;;;;;;-1.87;90.75;99356.25;5101408;28;20028;-66
2023/03/10 06:55:01;;;;;;;4.25;3.03;;;;;;;-1.69;90.36;99365.78;5098991;28;20024;-65
2023/03/10 06:57:27;;;;;;;4.63;2.85;;;;;;;-1.48;89.48;99361.94;5101704;28;20038;-65
2023/03/10 06:59:53;;;;;;;8.00;3.10;;;;;;;-1.57;89.60;99358.41;5100003;28;20084;-64
2023/03/10 07:02:18;;;;;;;8.35;3.10;;;;;;;-1.52;89.35;99360.59;5102283;28;20058;-65
2023/03/10 07:04:44;;;;;;;4.32;2.97;;;;;;;-1.44;89.30;99357.97;5101998;28;20059;-65
2023/03/10 07:07:11;;;;;;;5.10;2.60;;;;;;;-1.20;88.95;99375.72;5100882;28;20135;-65
2023/03/10 07:09:37;;;;;;;6.18;2.95;;;;;;;-1.27;88.98;99366.78;5095560;28;20039;-66
2023/03/10 07:12:02;;;;;;;5.82;3.20;;;;;;;-1.10;89.36;99373.78;5096018;28;20028;-66
2023/03/10 07:14:28;;;;;;;6.43;3.30;;;;;;;-0.86;88.87;99380.97;5096338;28;20388;-66
2023/03/10 07:16:53;;;;;;;5.55;3.38;;;;;;;-0.57;87.84;99385.81;5096132;28;20475;-66
2023/03/10 07:19:19;;;;;;;7.05;4.53;;;;;;;-0.48;87.25;99386.66;5098294;28;20060;-66
2023/03/10 07:21:44;;;;;;;8.18;3.58;;;;;;;-0.95;88.87;99389.88;5097880;28;20024;-66
2023/03/10 07:24:09;;;;;;;7.47;3.80;;;;;;;-0.93;89.07;99363.28;5097638;28;20039;-66
2023/03/10 07:26:36;;;;;;;5.45;3.30;;;;;;;-0.60;88.27;99398.53;5081437;28;20031;-66
2023/03/10 07:29:01;;;;;;;7.40;3.53;;;;;;;-0.55;88.35;99393.59;5099708;28;20028;-66
2023/03/10 07:31:27;;;;;;;7.28;3.55;;;;;;;-0.08;87.51;99404.38;5100048;28;20031;-66
2023/03/10 07:33:52;;;;;;;5.80;3.53;;;;;;;0.16;86.79;99405.38;5099173;28;20034;-66
2023/03/10 07:36:18;;;;;;;5.65;3.30;;;;;;;0.53;85.75;99414.56;5099543;28;20032;-67
2023/03/10 07:38:43;;;;;;;5.95;3.40;;;;;;;0.63;85.41;99409.91;5098044;28;20036;-66
2023/03/10 07:41:13;;;;;;;7.10;3.45;;;;;;;0.76;85.22;99412.84;5099993;28;20372;-66
2023/03/10 07:43:38;;;;;;;5.03;3.20;;;;;;;1.11;84.49;99405.47;5098961;28;20058;-65
2023/03/10 07:46:10;;;;;;;7.35;3.67;;;;;;;1.32;84.18;99412.81;5094974;28;20040;-66
2023/03/10 07:48:36;;;;;;;5.03;3.40;;;;;;;1.41;83.13;99423.19;5093075;28;20047;-67
2023/03/10 07:51:01;;;;;;;6.07;3.70;;;;;;;1.40;83.18;99410.13;5093305;28;20016;-66
2023/03/10 07:53:28;;;;;;;7.15;4.03;;;;;;;1.85;82.61;99427.91;5093682;28;20474;-66
2023/03/10 07:55:53;;;;;;;5.82;3.75;;;;;;;1.90;82.45;99427.38;5094577;28;20023;-67
2023/03/10 07:58:19;;;;;;;7.00;4.38;;;;;;;1.64;83.77;99427.72;5093971;28;20475;-65
2023/03/10 08:00:45;;;;;;;5.90;3.75;;;;;;;1.39;84.76;99425.22;5096128;28;20047;-66
2023/03/10 08:03:10;;;;;;;7.57;3.83;;;;;;;1.87;84.54;99433.03;5094895;28;20074;-65
2023/03/10 08:05:40;;;;;;;5.72;3.75;;;;;;;1.75;84.10;99427.28;5095970;28;20054;-66
2023/03/10 08:08:06;;;;;;;6.10;4.07;;;;;;;1.55;84.28;99434.06;5094244;28;20427;-67
2023/03/10 08:10:31;;;;;;;5.88;3.30;;;;;;;1.08;85.40;99421.69;5094295;28;20064;-65
2023/03/10 08:12:57;;;;;;;5.40;3.58;;;;;;;1.28;84.89;99399.06;5093337;28;20032;-67
2023/03/10 08:15:22;;;;;;;7.10;4.03;;;;;;;1.37;84.78;99423.72;5094360;28;20084;-65
2023/03/10 08:17:48;;;;;;;6.72;3.95;;;;;;;1.02;85.88;99417.09;5094023;28;20487;-66
2023/03/10 08:20:13;;;;;;;7.22;3.80;;;;;;;1.41;84.95;99423.19;5093389;28;20059;-66
2023/03/10 08:22:39;;;;;;;4.55;3.22;;;;;;;1.10;85.24;99440.91;5093881;28;20024;-65
2023/03/10 08:25:05;;;;;;;7.07;4.10;;;;;;;1.28;84.78;99440.66;5093694;28;20395;-66
2023/03/10 08:27:30;;;;;;;5.55;3.20;;;;;;;0.92;85.06;99446.41;5098478;28;20375;-65
2023/03/10 08:29:56;;;;;;;6.38;3.90;;;;;;;1.17;nan;99447.16;5096695;28;20032;-65
2023/03/10 08:32:21;;;;;;;6.78;3.67;;;;;;;1.09;83.95;99444.53;5095188;28;20079;-66
2023/03/10 08:34:47;;;;;;;8.63;4.43;;;;;;;1.44;83.58;99445.06;5093551;28;20036;-66
2023/03/10 08:37:12;;;;;;;8.32;4.40;;;;;;;1.77;82.59;99438.56;5093292;28;20042;-66
2023/03/10 08:39:37;;;;;;;5.95;3.95;;;;;;;2.14;81.31;99447.56;5094274;28;20403;-66
2023/03/10 08:42:03;;;;;;;8.75;4.57;;;;;;;2.14;81.08;99455.53;5097048;28;20125;-66
2023/03/10 08:44:28;;;;;;;8.93;4.85;;;;;;;2.18;81.34;99453.34;5095770;28;20426;-67
2023/03/10 08:46:54;;;;;;;7.40;4.32;;;;;;;2.04;80.85;99461.09;5094131;28;20032;-66
2023/03/10 08:49:21;;;;;;;6.50;4.43;;;;;;;1.96;81.13;99466.47;5093612;28;20087;-66
2023/03/10 08:51:47;;;;;;;6.95;4.25;;;;;;;1.79;80.90;99463.09;5093036;28;20028;-66
2023/03/10 08:54:15;;;;;;;9.35;4.53;;;;;;;1.52;82.05;99461.72;5094335;28;20039;-66
2023/03/10 08:56:40;;;;;;;9.00;5.60;;;;;;;1.72;82.05;99469.25;5093288;28;20032;-68
2023/03/10 08:59:05;;;;;;;7.35;4.78;;;;;;;1.73;82.29;99474.41;5092492;28;20031;-68
2023/03/10 09:01:33;;;;;;;6.95;4.50;;;;;;;1.67;82.00;99468.97;5093196;28;20502;-68
2023/03/10 09:04:00;;;;;;;8.85;4.30;;;;;;;1.69;82.19;99467.78;5093169;28;20043;-67
2023/03/10 09:06:26;;;;;;;8.13;4.70;;;;;;;2.03;81.91;99479.84;5092840;28;20035;-67
2023/03/10 09:08:52;;;;;;;7.00;4.50;;;;;;;2.38;80.77;99473.09;5093053;28;20034;-67
2023/03/10 09:11:24;;;;;;;9.43;5.03;;;;;;;2.57;80.60;99477.91;5092155;28;20024;-67
2023/03/10 09:13:51;;;;;;;6.22;4.45;;;;;;;2.25;80.93;99478.16;5093246;28;20036;-66
2023/03/10 09:16:17;;;;;;;6.47;4.43;;;;;;;2.45;80.64;99479.34;5092869;28;20085;-66
2023/03/10 09:18:42;;;;;;;6.75;4.43;;;;;;;2.47;80.92;99479.97;5092040;28;20044;-66
2023/03/10 09:21:11;;;;;;;9.88;4.00;;;;;;;2.30;80.95;99487.25;5091665;28;20028;-67
2023/03/10 09:23:38;;;;;;;6.97;4.25;;;;;;;2.18;81.21;99483.38;5092772;28;20024;-66
2023/03/10 09:26:04;;;;;;;7.05;4.20;;;;;;;2.13;81.17;99488.41;5091562;28;20433;-65
2023/03/10 09:28:29;;;;;;;7.13;4.32;;;;;;;2.00;82.03;99485.50;5091897;28;20032;-66
2023/03/10 09:30:55;;;;;;;7.75;4.28;;;;;;;2.17;81.52;99489.69;5091668;28;20016;-67
2023/03/10 09:33:21;;;;;;;5.50;3.67;;;;;;;2.03;82.03;99490.47;5093387;28;20028;-66
2023/03/10 09:35:48;;;;;;;5.25;3.72;;;;;;;2.07;81.91;99497.88;5091910;28;20530;-65
2023/03/10 09:38:14;;;;;;;7.95;4.00;;;;;;;2.09;81.78;99495.88;5093621;28;20043;-66
2023/03/10 09:40:56;;;;;;;6.28;4.70;;;;;;;1.84;83.11;99495.19;5092125;28;20024;-67
2023/03/10 09:43:22;;;;;;;6.03;4.32;;;;;;;1.89;82.48;99494.69;5093594;28;20024;-67
2023/03/10 09:45:59;;;;;;;6.00;4.07;;;;;;;1.85;83.51;99499.53;5092399;28;20380;-67
2023/03/10 09:48:27;;;;;;;7.30;4.22;;;;;;;2.21;82.20;99493.63;5092463;28;20420;-68
2023/03/10 09:50:55;;;;;;;6.57;4.07;;;;;;;2.31;82.45;99502.19;5092362;28;20496;-66
2023/03/10 09:53:50;;;;;;;7.28;4.30;;;;;;;2.63;81.34;99507.41;5092339;28;20036;-66
2023/03/10 09:56:18;;;;;;;;;;;;;;;2.74;81.48;99505.13;5091920;28;20016;-66
2023/03/10 09:58:49;;;;;;;6.05;4.20;;;;;;;3.00;80.35;99510.03;5092052;28;19912;-65
2023/03/10 10:01:28;;;;;;;7.10;4.65;;;;;;;2.59;81.04;99513.06;5096133;28;20031;-65
2023/03/10 10:03:59;;;;;;;8.05;4.50;;;;;;;2.33;81.98;99499.34;5097925;28;20084;-67
2023/03/10 10:06:29;;;;;;;7.15;4.55;;;;;;;2.43;82.61;99517.69;5098238;28;20368;-67
2023/03/10 10:09:06;;;;;;;8.18;4.60;;;;;;;2.72;81.76;99516.97;5095823;28;20084;-67
2023/03/10 10:11:35;;;;;;;6.07;4.70;;;;;;;2.59;81.77;99517.56;5097725;28;20030;-67
2023/03/10 10:14:22;;;;;;;6.30;4.75;;;;;;;2.46;82.39;99520.00;5097476;28;20032;-66
2023/03/10 10:16:58;;;;;;;6.47;4.70;;;;;;;2.32;83.57;99526.91;5096957;28;20024;-67
2023/03/10 10:19:27;;;;;;;5.75;3.95;;;;;;;2.42;82.87;99519.53;5095744;28;20078;-68
2023/03/10 10:22:06;;;;;;;6.60;4.35;;;;;;;2.60;82.57;99519.22;5096618;28;20043;-67
2023/03/10 10:24:31;;;;;;;9.32;4.60;;;;;;;3.03;82.55;99522.13;5096714;28;20038;-67
2023/03/10 10:26:57;;;;;;;8.68;4.18;;;;;;;2.62;83.10;99525.19;5096124;28;20032;-67
2023/03/10 10:29:45;;;;;;;7.13;4.10;;;;;;;2.25;84.13;99529.44;5096008;28;20024;-65
2023/03/10 10:32:13;;;;;;;5.97;4.05;;;;;;;2.59;84.71;99531.66;5095813;28;20016;-65
2023/03/10 10:34:44;;;;;;;6.20;4.40;;;;;;;2.68;84.28;99531.59;5096048;28;20024;-66
2023/03/10 10:37:34;;;;;;;7.05;3.92;;;;;;;2.29;86.08;99533.41;5094334;28;20090;-67
2023/03/10 10:40:00;;;;;;;7.25;4.18;;;;;;;2.68;84.58;99532.44;5095768;28;20032;-67
2023/03/10 10:42:28;;;;;;;7.03;4.20;;;;;;;2.92;84.95;99541.19;5095602;28;20046;-67
2023/03/10 10:45:02;;;;;;;6.68;4.82;;;;;;;3.47;83.34;99542.59;5095502;28;20063;-68
2023/03/10 10:47:36;;;;;;;8.15;4.68;;;;;;;3.56;82.59;99544.16;5095734;28;20055;-67
2023/03/10 10:50:22;;;;;;;6.93;4.38;;;;;;;3.45;82.22;99550.75;5095655;28;20028;-67
2023/03/10 10:53:11;;;;;;;7.35;4.70;;;;;;;3.67;81.86;99546.31;5095519;28;20032;-68
2023/03/10 10:55:38;;;;;;;7.05;4.40;;;;;;;4.04;81.24;99538.38;5095330;28;20046;-69
2023/03/10 10:58:21;;;;;;;7.63;4.32;;;;;;;4.48;79.71;99540.88;5095329;28;20085;-68
2023/03/10 11:01:00;;;;;;;6.85;4.28;;;;;;;4.83;78.34;99535.63;5095474;28;20212;-68
2023/03/10 11:03:28;;;;;;;6.88;4.38;;;;;;;4.78;78.17;99541.56;5095439;28;20459;-66
2023/03/10 11:05:54;;;;;;;5.82;4.10;;;;;;;4.75;77.52;99541.13;5095339;28;20032;-67
2023/03/10 11:08:25;;;;;;;7.03;3.90;;;;;;;4.87;77.74;99543.06;5095925;28;20024;-67
2023/03/10 11:10:58;;;;;;;5.93;3.90;;;;;;;4.13;79.07;99540.72;5095777;28;20046;-68
2023/03/10 11:13:58;;;;;;;7.15;4.35;;;;;;;3.87;79.76;99548.41;5094948;28;20027;-67
2023/03/10 11:16:27;;;;;;;6.05;4.15;;;;;;;3.46;82.24;99556.91;5092594;28;20457;-67
2023/03/10 11:19:03;;;;;;;7.65;4.18;;;;;;;3.49;81.97;99549.38;5095061;28;20023;-68
2023/03/10 11:21:33;;;;;;;5.30;4.03;;;;;;;3.16;83.49;99554.22;5095425;28;20028;-67
2023/03/10 11:24:04;;;;;;;6.57;3.65;;;;;;;3.12;83.97;99550.28;5095912;28;20031;-66
2023/03/10 11:26:29;;;;;;;7.00;4.60;;;;;;;3.32;83.34;99555.88;5096493;28;20111;-68
2023/03/10 11:29:16;;;;;;;8.13;4.53;;;;;;;3.09;82.20;99486.03;5111732;28;20053;-65
2023/03/10 11:32:00;;;;;;;7.60;5.10;;;;;;;3.65;82.39;99548.34;5097120;28;20127;-68
2023/03/10 11:34:30;;;;;;;6.70;4.90;;;;;;;4.03;81.02;99552.69;5095897;28;20020;-67
2023/03/10 11:37:20;;;;;;;6.50;4.68;;;;;;;3.64;81.45;99556.50;5095911;28;20074;-67
2023/03/10 11:40:14;;;;;;;8.10;4.80;;;;;;;4.01;80.79;99555.56;5096764;28;20031;-67
2023/03/10 11:42:50;;;;;;;7.05;4.60;;;;;;;4.03;80.90;99550.84;5095194;28;20028;-67